sensor_id;sensor_type;location;lat;lon;timestamp;pressure;altitude;pressure_sealevel;temperature;humidity
57374;BME280;43964;53.890;25.340;2023-02-11T00:02:01;1030.7;;;2.6;65.3
57374;BME280;43964;53.890;25.340;2023-02-11T00:06:53;1030.6;;;2.7;65.3
57374;BME280;43964;53.890;25.340;2023-02-11T00:11:51;1030.5;;;2.7;65.3
57374;BME280;43964;53.890;25.340;2023-02-11T00:17:03;1030.4;;;2.7;65.3
57374;BME280;43964;53.890;25.340;2023-02-11T00:21:25;1030.4;;;2.8;65
57374;BME280;43964;53.890;25.340;2023-02-11T00:26:49;1030.4;;;2.7;65
57374;BME280;43964;53.890;25.340;2023-02-11T00:31:13;1030.3;;;2.6;65.3
57374;BME280;43964;53.890;25.340;2023-02-11T00:36:51;1030.2;;;2.6;65.5
57374;BME280;43964;53.890;25.340;2023-02-11T00:41:39;1030.1;;;2.7;65.6
57374;BME280;43964;53.890;25.340;2023-02-11T00:46:31;1030;;;2.7;65.6
57374;BME280;43964;53.890;25.340;2023-02-11T00:51:41;1029.9;;;2.7;65.7
57374;BME280;43964;53.890;25.340;2023-02-11T00:57:05;1029.8;;;2.7;65.7
57374;BME280;43964;53.890;25.340;2023-02-11T01:01:49;1029.8;;;2.7;65.6
57374;BME280;43964;53.890;25.340;2023-02-11T01:06:39;1029.7;;;2.7;65.6
57374;BME280;43964;53.890;25.340;2023-02-11T01:11:39;1029.6;;;2.7;65.6
57374;BME280;43964;53.890;25.340;2023-02-11T01:16:13;1029.4;;;2.7;65.6
57374;BME280;43964;53.890;25.340;2023-02-11T01:21:49;1029.3;;;2.7;65.5
57374;BME280;43964;53.890;25.340;2023-02-11T01:26:37;1029.2;;;2.7;65.6
57374;BME280;43964;53.890;25.340;2023-02-11T01:31:37;1029;;;2.8;65.7
57374;BME280;43964;53.890;25.340;2023-02-11T01:36:13;1028.8;;;2.7;65.8
57374;BME280;43964;53.890;25.340;2023-02-11T01:42:03;1028.7;;;2.7;65.9
57374;BME280;43964;53.890;25.340;2023-02-11T01:46:28;1028.6;;;2.7;66
57374;BME280;43964;53.890;25.340;2023-02-11T01:51:52;1028.5;;;2.7;65.8
57374;BME280;43964;53.890;25.340;2023-02-11T01:56:35;1028.5;;;2.6;66
57374;BME280;43964;53.890;25.340;2023-02-11T02:01:49;1028.4;;;2.6;66.1
57374;BME280;43964;53.890;25.340;2023-02-11T02:06:42;1028.3;;;2.6;65.9
57374;BME280;43964;53.890;25.340;2023-02-11T02:11:13;1028.2;;;2.5;66.3
57374;BME280;43964;53.890;25.340;2023-02-11T02:16:51;1028;;;2.3;66.1
57374;BME280;43964;53.890;25.340;2023-02-11T02:21:25;1027.9;;;2.2;66.6
57374;BME280;43964;53.890;25.340;2023-02-11T02:26:27;1027.8;;;2.1;66.9
57374;BME280;43964;53.890;25.340;2023-02-11T02:31:44;1027.7;;;2.1;67.2
57374;BME280;43964;53.890;25.340;2023-02-11T02:37:03;1027.6;;;2.1;67.3
57374;BME280;43964;53.890;25.340;2023-02-11T02:41:39;1027.5;;;2;67.7
57374;BME280;43964;53.890;25.340;2023-02-11T02:46:49;1027.3;;;2;67.7
57374;BME280;43964;53.890;25.340;2023-02-11T02:51:46;1027;;;1.9;67.8
57374;BME280;43964;53.890;25.340;2023-02-11T02:56:13;1027;;;1.9;68
57374;BME280;43964;53.890;25.340;2023-02-11T03:01:41;1027;;;1.9;68.2
57374;BME280;43964;53.890;25.340;2023-02-11T03:06:27;1027;;;1.9;68.9
57374;BME280;43964;53.890;25.340;2023-02-11T03:12:03;1026.9;;;2.1;69.1
57374;BME280;43964;53.890;25.340;2023-02-11T03:17:03;1026.8;;;2.2;69.2
57374;BME280;43964;53.890;25.340;2023-02-11T03:21:39;1026.8;;;2.2;69.3
57374;BME280;43964;53.890;25.340;2023-02-11T03:27:05;1026.8;;;2.2;69.4
57374;BME280;43964;53.890;25.340;2023-02-11T03:32:04;1026.7;;;2.3;69.1
57374;BME280;43964;53.890;25.340;2023-02-11T03:36:14;1026.5;;;2.2;68.8
57374;BME280;43964;53.890;25.340;2023-02-11T03:41:13;1026.4;;;2.2;69.5
57374;BME280;43964;53.890;25.340;2023-02-11T03:47:06;1026.2;;;2.2;69.6
57374;BME280;43964;53.890;25.340;2023-02-11T03:51:39;1026;;;2.3;69.6
57374;BME280;43964;53.890;25.340;2023-02-11T03:56:13;1025.8;;;2.3;69.3
57374;BME280;43964;53.890;25.340;2023-02-11T04:01:13;1025.7;;;2.3;69.2
57374;BME280;43964;53.890;25.340;2023-02-11T04:06:41;1025.5;;;2.2;69.4
57374;BME280;43964;53.890;25.340;2023-02-11T04:11:13;1025.4;;;2.1;70
57374;BME280;43964;53.890;25.340;2023-02-11T04:16:39;1025.2;;;2.2;69.9
57374;BME280;43964;53.890;25.340;2023-02-11T04:22:03;1025;;;2.2;70.4
57374;BME280;43964;53.890;25.340;2023-02-11T04:26:49;1025;;;2.2;70.7
57374;BME280;43964;53.890;25.340;2023-02-11T04:32:03;1024.8;;;2.3;70
57374;BME280;43964;53.890;25.340;2023-02-11T04:36:13;1024.7;;;2.2;70.7
57374;BME280;43964;53.890;25.340;2023-02-11T04:41:51;1024.5;;;2.2;71.2
57374;BME280;43964;53.890;25.340;2023-02-11T04:46:13;1024.4;;;2.3;71.1
57374;BME280;43964;53.890;25.340;2023-02-11T04:51:13;1024.3;;;2.4;70.9
57374;BME280;43964;53.890;25.340;2023-02-11T04:56:39;1024.1;;;2.5;70.8
57374;BME280;43964;53.890;25.340;2023-02-11T05:01:49;1024;;;2.5;70.7
57374;BME280;43964;53.890;25.340;2023-02-11T05:07:03;1023.8;;;2.5;70.6
57374;BME280;43964;53.890;25.340;2023-02-11T05:11:13;1023.7;;;2.5;70.6
57374;BME280;43964;53.890;25.340;2023-02-11T05:17:05;1023.6;;;2.6;70.6
57374;BME280;43964;53.890;25.340;2023-02-11T05:21:13;1023.5;;;2.5;70.8
57374;BME280;43964;53.890;25.340;2023-02-11T05:26:51;1023.4;;;2.5;71
57374;BME280;43964;53.890;25.340;2023-02-11T05:31:27;1023.3;;;2.5;71.1
57374;BME280;43964;53.890;25.340;2023-02-11T05:36:51;1023.3;;;2.6;71.1
57374;BME280;43964;53.890;25.340;2023-02-11T05:41:27;1023;;;2.6;71.2
57374;BME280;43964;53.890;25.340;2023-02-11T05:46:49;1023;;;2.6;71.2
57374;BME280;43964;53.890;25.340;2023-02-11T05:51:49;1022.9;;;2.6;70.9
57374;BME280;43964;53.890;25.340;2023-02-11T05:57:05;1022.9;;;2.6;71.2
57374;BME280;43964;53.890;25.340;2023-02-11T06:02:01;1022.9;;;2.6;70.8
57374;BME280;43964;53.890;25.340;2023-02-11T06:06:49;1022.9;;;2.6;71
57374;BME280;43964;53.890;25.340;2023-02-11T06:11:53;1022.8;;;2.7;70.4
57374;BME280;43964;53.890;25.340;2023-02-11T06:16:41;1022.8;;;2.6;71.1
57374;BME280;43964;53.890;25.340;2023-02-11T06:21:37;1022.6;;;2.6;71.6
57374;BME280;43964;53.890;25.340;2023-02-11T06:26:15;1022.5;;;2.7;71.4
57374;BME280;43964;53.890;25.340;2023-02-11T06:31:47;1022.4;;;2.7;71.2
57374;BME280;43964;53.890;25.340;2023-02-11T06:36:39;1022.5;;;2.8;71.3
57374;BME280;43964;53.890;25.340;2023-02-11T06:41:49;1022.4;;;2.9;70.8
57374;BME280;43964;53.890;25.340;2023-02-11T06:46:51;1022.4;;;2.8;71.2
57374;BME280;43964;53.890;25.340;2023-02-11T06:52:01;1022.3;;;2.9;71.1
57374;BME280;43964;53.890;25.340;2023-02-11T06:57:03;1022.2;;;3;71.1
57374;BME280;43964;53.890;25.340;2023-02-11T07:01:27;1022.1;;;3.1;71
57374;BME280;43964;53.890;25.340;2023-02-11T07:07:03;1022.1;;;3.2;70.7
57374;BME280;43964;53.890;25.340;2023-02-11T07:11:27;1022;;;3.2;70.7
57374;BME280;43964;53.890;25.340;2023-02-11T07:17:05;1021.9;;;3.3;70.7
57374;BME280;43964;53.890;25.340;2023-02-11T07:21:51;1021.7;;;3.3;70.6
57374;BME280;43964;53.890;25.340;2023-02-11T07:26:53;1021.6;;;3.3;70.5
57374;BME280;43964;53.890;25.340;2023-02-11T07:31:39;1021.5;;;3.3;70.4
57374;BME280;43964;53.890;25.340;2023-02-11T07:37:03;1021.5;;;3.3;70.5
57374;BME280;43964;53.890;25.340;2023-02-11T07:41:41;1021.4;;;3.4;70.4
57374;BME280;43964;53.890;25.340;2023-02-11T07:47:03;1021.3;;;3.5;70.3
57374;BME280;43964;53.890;25.340;2023-02-11T07:51:49;1021.2;;;3.5;70.2
57374;BME280;43964;53.890;25.340;2023-02-11T07:56:14;1021.1;;;3.6;70.2
57374;BME280;43964;53.890;25.340;2023-02-11T08:01:14;1021.1;;;3.5;70
57374;BME280;43964;53.890;25.340;2023-02-11T08:06:27;1021;;;3.5;70.1
57374;BME280;43964;53.890;25.340;2023-02-11T08:11:49;1021;;;3.3;70.2
57374;BME280;43964;53.890;25.340;2023-02-11T08:16:51;1020.9;;;3.3;70.2
57374;BME280;43964;53.890;25.340;2023-02-11T08:21:39;1020.8;;;3.3;70.2
57374;BME280;43964;53.890;25.340;2023-02-11T08:26:13;1020.8;;;3.3;70.3
57374;BME280;43964;53.890;25.340;2023-02-11T08:31:49;1020.7;;;3.2;70.3
57374;BME280;43964;53.890;25.340;2023-02-11T08:36:25;1020.6;;;3.3;70.4
57374;BME280;43964;53.890;25.340;2023-02-11T08:41:49;1020.5;;;3.3;70.5
57374;BME280;43964;53.890;25.340;2023-02-11T08:46:25;1020.4;;;3.3;70.5
57374;BME280;43964;53.890;25.340;2023-02-11T08:51:23;1020.3;;;3.4;70.4
57374;BME280;43964;53.890;25.340;2023-02-11T08:56:27;1020.3;;;3.5;70.1
57374;BME280;43964;53.890;25.340;2023-02-11T09:01:26;1020.2;;;3.5;70.1
57374;BME280;43964;53.890;25.340;2023-02-11T09:07:01;1020.1;;;3.5;70.2
57374;BME280;43964;53.890;25.340;2023-02-11T09:12:01;1020;;;3.5;70.1
57374;BME280;43964;53.890;25.340;2023-02-11T09:16:16;1020;;;3.4;70.1
57374;BME280;43964;53.890;25.340;2023-02-11T09:22:00;1019.8;;;3.3;69.8
57374;BME280;43964;53.890;25.340;2023-02-11T09:27:01;1019.9;;;3.1;70.1
57374;BME280;43964;53.890;25.340;2023-02-11T09:31:26;1019.8;;;3.1;71
57374;BME280;43964;53.890;25.340;2023-02-11T09:36:41;1019.8;;;3.3;71
57374;BME280;43964;53.890;25.340;2023-02-11T09:42:43;1019.8;;;3.3;70.6
57374;BME280;43964;53.890;25.340;2023-02-11T09:46:28;1019.7;;;3.2;70.7
57374;BME280;43964;53.890;25.340;2023-02-11T09:51:15;1019.6;;;3.2;70.9
57374;BME280;43964;53.890;25.340;2023-02-11T09:56:13;1019.5;;;3.2;70.7
57374;BME280;43964;53.890;25.340;2023-02-11T10:01:49;1019.5;;;3.3;70.9
57374;BME280;43964;53.890;25.340;2023-02-11T10:06:53;1019.4;;;3.3;70.8
57374;BME280;43964;53.890;25.340;2023-02-11T10:11:40;1019.4;;;3.3;70.8
57374;BME280;43964;53.890;25.340;2023-02-11T10:16:31;1019.4;;;3.3;70.8
57374;BME280;43964;53.890;25.340;2023-02-11T10:21:41;1019.3;;;3.4;70.8
57374;BME280;43964;53.890;25.340;2023-02-11T10:26:51;1019.2;;;3.4;70.4
57374;BME280;43964;53.890;25.340;2023-02-11T10:31:40;1019.3;;;3.3;70.3
57374;BME280;43964;53.890;25.340;2023-02-11T10:36:51;1019.1;;;3.2;70.9
57374;BME280;43964;53.890;25.340;2023-02-11T10:41:15;1019.1;;;3.3;70.9
57374;BME280;43964;53.890;25.340;2023-02-11T10:46:39;1019.1;;;3.4;70.6
57374;BME280;43964;53.890;25.340;2023-02-11T10:51:29;1019;;;3.4;70.7
57374;BME280;43964;53.890;25.340;2023-02-11T10:56:50;1019;;;3.5;70.6
57374;BME280;43964;53.890;25.340;2023-02-11T11:01:54;1018.9;;;3.5;70.7
57374;BME280;43964;53.890;25.340;2023-02-11T11:06:39;1018.9;;;3.6;70.7
57374;BME280;43964;53.890;25.340;2023-02-11T11:12:05;1018.9;;;3.8;70.5
57374;BME280;43964;53.890;25.340;2023-02-11T11:16:37;1018.9;;;3.8;70.3
57374;BME280;43964;53.890;25.340;2023-02-11T11:21:51;1018.8;;;3.9;70.3
57374;BME280;43964;53.890;25.340;2023-02-11T11:26:39;1018.7;;;3.9;70.2
57374;BME280;43964;53.890;25.340;2023-02-11T11:31:52;1018.6;;;3.9;70.2
57374;BME280;43964;53.890;25.340;2023-02-11T11:36:29;1018.5;;;4;70.1
57374;BME280;43964;53.890;25.340;2023-02-11T11:41:39;1018.4;;;4;70.2
57374;BME280;43964;53.890;25.340;2023-02-11T11:46:52;1018.2;;;4.1;70
57374;BME280;43964;53.890;25.340;2023-02-11T11:51:50;1018.1;;;4.1;70
57374;BME280;43964;53.890;25.340;2023-02-11T11:57:04;1018.1;;;4.1;69.8
57374;BME280;43964;53.890;25.340;2023-02-11T12:01:34;1018;;;4;69.9
57374;BME280;43964;53.890;25.340;2023-02-11T12:07:09;1017.9;;;4;70
57374;BME280;43964;53.890;25.340;2023-02-11T12:11:29;1017.8;;;4.1;70
57374;BME280;43964;53.890;25.340;2023-02-11T12:16:42;1017.7;;;4;70.1
57374;BME280;43964;53.890;25.340;2023-02-11T12:21:16;1017.6;;;4;70.2
57374;BME280;43964;53.890;25.340;2023-02-11T12:26:13;1017.6;;;4;70.1
57374;BME280;43964;53.890;25.340;2023-02-11T12:31:37;1017.6;;;3.9;70
57374;BME280;43964;53.890;25.340;2023-02-11T12:36:53;1017.5;;;3.8;70.3
57374;BME280;43964;53.890;25.340;2023-02-11T12:41:18;1017.6;;;3.9;70.3
57374;BME280;43964;53.890;25.340;2023-02-11T12:47:05;1017.5;;;3.9;70
57374;BME280;43964;53.890;25.340;2023-02-11T12:52:09;1017.5;;;3.8;70.1
57374;BME280;43964;53.890;25.340;2023-02-11T12:56:51;1017.5;;;3.8;70.5
57374;BME280;43964;53.890;25.340;2023-02-11T13:02:03;1017.6;;;3.9;70.3
57374;BME280;43964;53.890;25.340;2023-02-11T13:06:13;1017.5;;;4;70.3
57374;BME280;43964;53.890;25.340;2023-02-11T13:11:49;1017.6;;;4;70.2
57374;BME280;43964;53.890;25.340;2023-02-11T13:16:16;1017.5;;;4.1;70.2
57374;BME280;43964;53.890;25.340;2023-02-11T13:22:00;1017.5;;;4;70.2
57374;BME280;43964;53.890;25.340;2023-02-11T13:26:40;1017.4;;;4;70.3
57374;BME280;43964;53.890;25.340;2023-02-11T13:32:05;1017.5;;;4.1;70.4
57374;BME280;43964;53.890;25.340;2023-02-11T13:36:41;1017.4;;;4.1;70.3
57374;BME280;43964;53.890;25.340;2023-02-11T13:42:03;1017.4;;;4.1;70.3
57374;BME280;43964;53.890;25.340;2023-02-11T13:46:13;1017.4;;;4.1;70.4
57374;BME280;43964;53.890;25.340;2023-02-11T13:51:39;1017.4;;;4.1;70.2
57374;BME280;43964;53.890;25.340;2023-02-11T13:56:39;1017.4;;;4.1;70.2
57374;BME280;43964;53.890;25.340;2023-02-11T14:02:00;1017.2;;;4.2;70.4
57374;BME280;43964;53.890;25.340;2023-02-11T14:07:20;1017.2;;;4.2;70.4
57374;BME280;43964;53.890;25.340;2023-02-11T14:12:15;1017.2;;;4.2;70.4
57374;BME280;43964;53.890;25.340;2023-02-11T14:16:40;1017.3;;;4.3;70.4
57374;BME280;43964;53.890;25.340;2023-02-11T14:21:33;1017.3;;;4.3;70.4
57374;BME280;43964;53.890;25.340;2023-02-11T14:27:03;1017.3;;;4.3;70.4
57374;BME280;43964;53.890;25.340;2023-02-11T14:31:13;1017.4;;;4.4;70.5
57374;BME280;43964;53.890;25.340;2023-02-11T14:37:02;1017.4;;;4.4;70.5
57374;BME280;43964;53.890;25.340;2023-02-11T14:41:42;1017.5;;;4.4;70.4
57374;BME280;43964;53.890;25.340;2023-02-11T14:46:13;1017.5;;;4.4;70.3
57374;BME280;43964;53.890;25.340;2023-02-11T14:51:23;1017.6;;;4.4;70.2
57374;BME280;43964;53.890;25.340;2023-02-11T14:56:17;1017.6;;;4.4;70.2
57374;BME280;43964;53.890;25.340;2023-02-11T15:01:47;1017.5;;;4.4;70.5
57374;BME280;43964;53.890;25.340;2023-02-11T15:06:15;1017.5;;;4.3;70.8
57374;BME280;43964;53.890;25.340;2023-02-11T15:11:39;1017.5;;;4.3;70.8
57374;BME280;43964;53.890;25.340;2023-02-11T15:16:39;1017.6;;;4.2;70.9
57374;BME280;43964;53.890;25.340;2023-02-11T15:22:06;1017.6;;;4.2;70.8
57374;BME280;43964;53.890;25.340;2023-02-11T15:26:13;1017.7;;;4.2;70.8
57374;BME280;43964;53.890;25.340;2023-02-11T15:31:45;1017.6;;;4.2;71.2
57374;BME280;43964;53.890;25.340;2023-02-11T15:36:13;1017.7;;;4.3;71.2
57374;BME280;43964;53.890;25.340;2023-02-11T15:41:38;1017.8;;;4.4;71.1
57374;BME280;43964;53.890;25.340;2023-02-11T15:46:23;1017.9;;;4.5;71.1
57374;BME280;43964;53.890;25.340;2023-02-11T15:51:17;1017.9;;;4.6;71
57374;BME280;43964;53.890;25.340;2023-02-11T15:57:02;1018.1;;;4.7;70.9
57374;BME280;43964;53.890;25.340;2023-02-11T16:02:04;1018.2;;;4.7;70.9
57374;BME280;43964;53.890;25.340;2023-02-11T16:06:39;1018.3;;;4.6;70.8
57374;BME280;43964;53.890;25.340;2023-02-11T16:12:17;1018.3;;;4.5;71
57374;BME280;43964;53.890;25.340;2023-02-11T16:17:04;1018.3;;;4.5;71
57374;BME280;43964;53.890;25.340;2023-02-11T16:21:41;1018.6;;;4.7;71.1
57374;BME280;43964;53.890;25.340;2023-02-11T16:26:39;1018.7;;;4.7;71
57374;BME280;43964;53.890;25.340;2023-02-11T16:32:04;1018.7;;;4.7;71.1
57374;BME280;43964;53.890;25.340;2023-02-11T16:36:14;1018.7;;;4.7;71.1
57374;BME280;43964;53.890;25.340;2023-02-11T16:41:23;1018.8;;;4.8;71.1
57374;BME280;43964;53.890;25.340;2023-02-11T16:46:41;1018.8;;;4.8;71.1
57374;BME280;43964;53.890;25.340;2023-02-11T16:56:53;1019.1;;;4.8;71.5
57374;BME280;43964;53.890;25.340;2023-02-11T17:01:33;1019.2;;;4.8;71.2
57374;BME280;43964;53.890;25.340;2023-02-11T17:07:03;1019.3;;;4.8;71.3
57374;BME280;43964;53.890;25.340;2023-02-11T17:11:49;1019.4;;;4.8;71.6
57374;BME280;43964;53.890;25.340;2023-02-11T17:16:51;1019.6;;;5;71.8
57374;BME280;43964;53.890;25.340;2023-02-11T17:21:13;1019.8;;;4.9;71.2
57374;BME280;43964;53.890;25.340;2023-02-11T17:26:51;1020;;;5;71.6
57374;BME280;43964;53.890;25.340;2023-02-11T17:31:33;1020.2;;;5.1;71.6
57374;BME280;43964;53.890;25.340;2023-02-11T17:36:13;1020.4;;;5.2;71.5
57374;BME280;43964;53.890;25.340;2023-02-11T17:41:51;1020.5;;;5.2;71.6
57374;BME280;43964;53.890;25.340;2023-02-11T17:46:51;1020.8;;;5.2;71.6
57374;BME280;43964;53.890;25.340;2023-02-11T17:52:05;1021.1;;;5.2;71.4
57374;BME280;43964;53.890;25.340;2023-02-11T17:56:27;1021.3;;;5;71.2
57374;BME280;43964;53.890;25.340;2023-02-11T18:01:55;1021.5;;;4.8;70.9
57374;BME280;43964;53.890;25.340;2023-02-11T18:06:25;1021.7;;;4.5;70.5
57374;BME280;43964;53.890;25.340;2023-02-11T18:11:39;1021.9;;;4.3;70.3
57374;BME280;43964;53.890;25.340;2023-02-11T18:16:13;1022.1;;;4.1;70
57374;BME280;43964;53.890;25.340;2023-02-11T18:21:51;1022.4;;;3.9;69.8
57374;BME280;43964;53.890;25.340;2023-02-11T18:26:13;1022.6;;;3.7;69.6
57374;BME280;43964;53.890;25.340;2023-02-11T18:31:59;1022.7;;;3.5;69.5
57374;BME280;43964;53.890;25.340;2023-02-11T18:36:51;1022.9;;;3.5;69.7
57374;BME280;43964;53.890;25.340;2023-02-11T18:42:05;1023.1;;;3.4;69.7
57374;BME280;43964;53.890;25.340;2023-02-11T18:47:03;1023.3;;;3.2;69.8
57374;BME280;43964;53.890;25.340;2023-02-11T18:51:49;1023.5;;;3.1;69.8
57374;BME280;43964;53.890;25.340;2023-02-11T18:57:03;1023.6;;;3;69.7
57374;BME280;43964;53.890;25.340;2023-02-11T19:01:29;1023.9;;;2.9;69.8
57374;BME280;43964;53.890;25.340;2023-02-11T19:06:41;1024;;;2.9;69.5
57374;BME280;43964;53.890;25.340;2023-02-11T19:11:13;1024.2;;;2.9;68.9
57374;BME280;43964;53.890;25.340;2023-02-11T19:17:03;1024.3;;;2.8;68.8
57374;BME280;43964;53.890;25.340;2023-02-11T19:21:29;1024.4;;;2.9;68.9
57374;BME280;43964;53.890;25.340;2023-02-11T19:26:49;1024.5;;;2.9;68.9
57374;BME280;43964;53.890;25.340;2023-02-11T19:31:47;1024.7;;;2.9;68.8
57374;BME280;43964;53.890;25.340;2023-02-11T19:37:03;1024.8;;;2.9;68.8
57374;BME280;43964;53.890;25.340;2023-02-11T19:42:05;1024.9;;;2.9;68.8
57374;BME280;43964;53.890;25.340;2023-02-11T19:46:35;1025.1;;;2.9;68.7
57374;BME280;43964;53.890;25.340;2023-02-11T19:52:03;1025.2;;;2.9;68.7
57374;BME280;43964;53.890;25.340;2023-02-11T19:56:39;1025.3;;;2.8;68.6
57374;BME280;43964;53.890;25.340;2023-02-11T20:01:45;1025.4;;;2.8;68.4
57374;BME280;43964;53.890;25.340;2023-02-11T20:06:13;1025.6;;;2.8;68.3
57374;BME280;43964;53.890;25.340;2023-02-11T20:11:39;1025.7;;;2.7;68.4
57374;BME280;43964;53.890;25.340;2023-02-11T20:16:39;1025.8;;;2.6;68.2
57374;BME280;43964;53.890;25.340;2023-02-11T20:22:03;1025.9;;;2.5;68.3
57374;BME280;43964;53.890;25.340;2023-02-11T20:26:53;1026.1;;;2.6;68.3
57374;BME280;43964;53.890;25.340;2023-02-11T20:32:03;1026.3;;;2.7;68
57374;BME280;43964;53.890;25.340;2023-02-11T20:36:51;1026.4;;;2.7;68
57374;BME280;43964;53.890;25.340;2023-02-11T20:41:28;1026.6;;;2.7;68
57374;BME280;43964;53.890;25.340;2023-02-11T20:46:41;1026.7;;;2.7;68
57374;BME280;43964;53.890;25.340;2023-02-11T20:51:13;1026.8;;;2.8;68
57374;BME280;43964;53.890;25.340;2023-02-11T20:56:51;1026.9;;;2.7;67.9
57374;BME280;43964;53.890;25.340;2023-02-11T21:01:14;1027;;;2.7;68
57374;BME280;43964;53.890;25.340;2023-02-11T21:06:36;1027.2;;;2.8;68
57374;BME280;43964;53.890;25.340;2023-02-11T21:11:27;1027.4;;;2.8;68
57374;BME280;43964;53.890;25.340;2023-02-11T21:17:05;1027.6;;;2.7;68
57374;BME280;43964;53.890;25.340;2023-02-11T21:21:41;1027.8;;;2.6;68.1
57374;BME280;43964;53.890;25.340;2023-02-11T21:26:37;1028;;;2.6;67.9
57374;BME280;43964;53.890;25.340;2023-02-11T21:31:23;1028.1;;;2.6;67.8
57374;BME280;43964;53.890;25.340;2023-02-11T21:36:13;1028.3;;;2.6;67.7
57374;BME280;43964;53.890;25.340;2023-02-11T21:41:41;1028.4;;;2.6;67.6
57374;BME280;43964;53.890;25.340;2023-02-11T21:46:13;1028.5;;;2.5;67.3
57374;BME280;43964;53.890;25.340;2023-02-11T21:52:05;1028.6;;;2.4;67.2
57374;BME280;43964;53.890;25.340;2023-02-11T21:57:03;1028.7;;;2.4;67.3
57374;BME280;43964;53.890;25.340;2023-02-11T22:01:26;1028.9;;;2.4;67.2
57374;BME280;43964;53.890;25.340;2023-02-11T22:06:55;1029.1;;;2.3;66.9
57374;BME280;43964;53.890;25.340;2023-02-11T22:12:03;1029.3;;;2.1;66.8
57374;BME280;43964;53.890;25.340;2023-02-11T22:16:25;1029.4;;;1.9;67
57374;BME280;43964;53.890;25.340;2023-02-11T22:21:27;1029.6;;;1.9;67.2
57374;BME280;43964;53.890;25.340;2023-02-11T22:27:05;1029.7;;;1.8;67.1
57374;BME280;43964;53.890;25.340;2023-02-11T22:31:29;1029.8;;;1.7;67.1
57374;BME280;43964;53.890;25.340;2023-02-11T22:36:14;1029.9;;;1.7;67
57374;BME280;43964;53.890;25.340;2023-02-11T22:41:13;1030.1;;;1.6;66.8
57374;BME280;43964;53.890;25.340;2023-02-11T22:46:49;1030.2;;;1.5;66.8
57374;BME280;43964;53.890;25.340;2023-02-11T22:51:51;1030.3;;;1.5;66.7
57374;BME280;43964;53.890;25.340;2023-02-11T22:56:37;1030.5;;;1.5;66.5
57374;BME280;43964;53.890;25.340;2023-02-11T23:01:59;1030.7;;;1.5;66.4
57374;BME280;43964;53.890;25.340;2023-02-11T23:06:23;1030.8;;;1.4;66.2
57374;BME280;43964;53.890;25.340;2023-02-11T23:11:51;1030.9;;;1.3;66.2
57374;BME280;43964;53.890;25.340;2023-02-11T23:16:14;1031;;;1.2;66.1
57374;BME280;43964;53.890;25.340;2023-02-11T23:22:03;1031.1;;;1.1;66
57374;BME280;43964;53.890;25.340;2023-02-11T23:26:15;1031.2;;;1;66
57374;BME280;43964;53.890;25.340;2023-02-11T23:31:14;1031.3;;;1;65.9
57374;BME280;43964;53.890;25.340;2023-02-11T23:36:41;1031.4;;;0.9;65.9
57374;BME280;43964;53.890;25.340;2023-02-11T23:41:51;1031.5;;;0.9;66
57374;BME280;43964;53.890;25.340;2023-02-11T23:47:03;1031.6;;;0.9;65.9
57374;BME280;43964;53.890;25.340;2023-02-11T23:51:39;1031.7;;;0.8;65.8
57374;BME280;43964;53.890;25.340;2023-02-11T23:57:05;1031.8;;;0.7;65.7
